Time;durP1;ratioP1;P1;durP2;ratioP2;P2;SDS_P1;SDS_P2;PMS_P1;PMS_P2;Temp;Humidity;BMP_temperature;BMP_pressure;BME280_temperature;BME280_humidity;BME280_pressure;Samples;Min_cycle;Max_cycle;Signal;HPM_P1;HPM_P2
2022/11/21 00:00:59;;;;;;;13.10;10.60;;;;;;;;;;5070002;28;20936;-44
2022/11/21 00:03:25;;;;;;;12.43;10.17;;;;;;;;;;5069394;28;20449;-44
2022/11/21 00:05:54;;;;;;;12.47;10.57;;;;;;;;;;5071530;28;20647;-44
2022/11/21 00:08:21;;;;;;;13.77;10.53;;;;;;;;;;5071380;28;20482;-44
2022/11/21 00:10:47;;;;;;;12.07;10.73;;;;;;;;;;5071356;28;20511;-44
2022/11/21 00:13:14;;;;;;;13.17;11.13;;;;;;;;;;5071227;28;20944;-44
2022/11/21 00:15:41;;;;;;;13.33;10.80;;;;;;;;;;5071395;28;20479;-44
2022/11/21 00:18:07;;;;;;;12.80;10.77;;;;;;;;;;5070665;28;20485;-44
2022/11/21 00:20:35;;;;;;;12.63;10.90;;;;;;;;;;5070926;28;20807;-44
2022/11/21 00:23:02;;;;;;;12.43;10.13;;;;;;;;;;5071187;28;20442;-45
2022/11/21 00:25:28;;;;;;;12.60;10.70;;;;;;;;;;5071199;28;20473;-45
2022/11/21 00:27:54;;;;;;;13.93;11.03;;;;;;;;;;5071150;28;20519;-45
2022/11/21 00:30:20;;;;;;;13.37;11.40;;;;;;;;;;5070875;28;20461;-45
2022/11/21 00:32:47;;;;;;;13.63;12.03;;;;;;;;;;5070880;28;20442;-45
2022/11/21 00:35:13;;;;;;;13.30;11.90;;;;;;;;;;5070842;28;20445;-45
2022/11/21 00:37:39;;;;;;;13.00;11.70;;;;;;;;;;5070599;28;20453;-45
2022/11/21 00:40:06;;;;;;;15.17;11.63;;;;;;;;;;5070887;28;20481;-45
2022/11/21 00:42:32;;;;;;;13.90;12.20;;;;;;;;;;5070381;28;20453;-44
2022/11/21 00:44:58;;;;;;;16.47;13.10;;;;;;;;;;5070928;28;20954;-44
2022/11/21 00:47:24;;;;;;;15.13;12.50;;;;;;;;;;5070843;28;20833;-44
2022/11/21 00:49:51;;;;;;;13.73;11.63;;;;;;;;;;5070880;28;20840;-44
2022/11/21 00:52:17;;;;;;;14.70;11.97;;;;;;;;;;5070898;28;21038;-44
2022/11/21 00:54:44;;;;;;;13.33;11.97;;;;;;;;;;5070872;28;20448;-44
2022/11/21 00:57:10;;;;;;;14.67;12.73;;;;;;;;;;5070653;28;20465;-44
2022/11/21 00:59:36;;;;;;;14.43;12.10;;;;;;;;;;5070747;28;20474;-44
2022/11/21 01:02:02;;;;;;;14.30;12.60;;;;;;;;;;5070419;28;20434;-44
2022/11/21 01:04:30;;;;;;;14.07;12.03;;;;;;;;;;5071026;28;20440;-44
2022/11/21 01:06:57;;;;;;;15.60;12.70;;;;;;;;;;5067486;28;20430;-44
2022/11/21 01:09:23;;;;;;;14.73;11.97;;;;;;;;;;5069224;28;20454;-44
2022/11/21 01:11:49;;;;;;;15.27;12.93;;;;;;;;;;5070956;28;20496;-44
2022/11/21 01:14:15;;;;;;;14.57;12.77;;;;;;;;;;5070886;28;20499;-44
2022/11/21 01:16:42;;;;;;;14.43;12.20;;;;;;;;;;5070733;28;20815;-44
2022/11/21 01:19:08;;;;;;;15.57;11.90;;;;;;;;;;5070725;28;20488;-44
2022/11/21 01:21:34;;;;;;;15.90;12.73;;;;;;;;;;5070691;28;20437;-43
2022/11/21 01:24:02;;;;;;;15.83;12.60;;;;;;;;;;5070447;28;20442;-44
2022/11/21 01:26:29;;;;;;;14.23;11.73;;;;;;;;;;5070942;28;20429;-44
2022/11/21 01:28:55;;;;;;;14.33;12.20;;;;;;;;;;5070981;28;20446;-45
2022/11/21 01:31:22;;;;;;;13.93;12.13;;;;;;;;;;5074747;28;20434;-44
2022/11/21 01:33:48;;;;;;;14.27;12.37;;;;;;;;;;5074215;28;20438;-44
2022/11/21 01:36:15;;;;;;;16.00;12.40;;;;;;;;;;5074249;28;20479;-45
2022/11/21 01:38:42;;;;;;;15.83;11.70;;;;;;;;;;5074102;28;21053;-44
2022/11/21 01:41:10;;;;;;;16.47;12.70;;;;;;;;;;5074396;28;20430;-44
2022/11/21 01:43:37;;;;;;;15.67;12.83;;;;;;;;;;5074033;28;20452;-44
2022/11/21 01:46:04;;;;;;;13.70;11.97;;;;;;;;;;5074040;28;20483;-44
2022/11/21 01:48:33;;;;;;;15.60;12.80;;;;;;;;;;5073644;28;20431;-44
2022/11/21 01:51:03;;;;;;;17.83;12.10;;;;;;;;;;5073763;28;20773;-44
2022/11/21 01:53:29;;;;;;;14.47;11.37;;;;;;;;;;5074274;28;20469;-44
2022/11/21 01:55:55;;;;;;;13.80;11.90;;;;;;;;;;5073964;28;20438;-44
2022/11/21 01:58:23;;;;;;;14.73;12.77;;;;;;;;;;5073811;28;20465;-44
2022/11/21 02:00:49;;;;;;;16.43;12.77;;;;;;;;;;5073594;28;20536;-44
2022/11/21 02:03:18;;;;;;;17.40;13.97;;;;;;;;;;5073754;28;20430;-44
2022/11/21 02:05:44;;;;;;;20.43;15.63;;;;;;;;;;5073730;28;20458;-45
2022/11/21 02:08:13;;;;;;;23.50;17.70;;;;;;;;;;5073695;28;20972;-44
2022/11/21 02:10:40;;;;;;;20.63;15.00;;;;;;;;;;5073493;28;20433;-44
2022/11/21 02:13:06;;;;;;;16.80;13.53;;;;;;;;;;5073489;28;20873;-44
2022/11/21 02:15:34;;;;;;;18.53;14.50;;;;;;;;;;5072459;28;20840;-44
2022/11/21 02:18:00;;;;;;;16.93;13.60;;;;;;;;;;5073400;28;20923;-44
2022/11/21 02:20:27;;;;;;;16.90;13.33;;;;;;;;;;5073682;28;20928;-44
2022/11/21 02:22:58;;;;;;;14.37;12.07;;;;;;;;;;5073386;28;20437;-44
2022/11/21 02:25:27;;;;;;;16.20;12.63;;;;;;;;;;5073574;28;20469;-44
2022/11/21 02:27:55;;;;;;;14.40;12.37;;;;;;;;;;5073318;28;20461;-44
2022/11/21 02:30:22;;;;;;;15.70;12.17;;;;;;;;;;5072884;28;20477;-44
2022/11/21 02:32:48;;;;;;;15.30;11.93;;;;;;;;;;5073160;28;20453;-44
2022/11/21 02:35:15;;;;;;;14.30;11.93;;;;;;;;;;5073390;28;20461;-44
2022/11/21 02:37:42;;;;;;;14.00;11.90;;;;;;;;;;5073276;28;20841;-44
2022/11/21 02:40:10;;;;;;;15.37;12.77;;;;;;;;;;5072499;28;20614;-44
2022/11/21 02:42:38;;;;;;;18.43;12.20;;;;;;;;;;5072617;28;20463;-44
2022/11/21 02:45:09;;;;;;;20.87;14.63;;;;;;;;;;5072991;28;20442;-44
2022/11/21 02:47:37;;;;;;;23.43;16.50;;;;;;;;;;5072873;28;20458;-44
2022/11/21 02:50:07;;;;;;;20.80;14.63;;;;;;;;;;5072891;28;20507;-45
2022/11/21 02:52:33;;;;;;;23.10;15.87;;;;;;;;;;5073034;28;20476;-45
2022/11/21 02:54:59;;;;;;;24.63;16.87;;;;;;;;;;5072851;28;20445;-45
2022/11/21 02:57:25;;;;;;;23.50;16.60;;;;;;;;;;5073156;28;20477;-44
2022/11/21 02:59:52;;;;;;;24.73;17.07;;;;;;;;;;5072688;28;20478;-45
2022/11/21 03:02:18;;;;;;;24.87;16.93;;;;;;;;;;5071189;28;20536;-45
2022/11/21 03:04:44;;;;;;;23.13;16.90;;;;;;;;;;5072629;28;20505;-45
2022/11/21 03:07:10;;;;;;;26.67;17.73;;;;;;;;;;5072758;28;20426;-45
2022/11/21 03:09:36;;;;;;;23.57;17.03;;;;;;;;;;5072341;28;20535;-45
2022/11/21 03:12:05;;;;;;;22.90;17.23;;;;;;;;;;5072586;28;20437;-45
2022/11/21 03:14:31;;;;;;;28.00;16.77;;;;;;;;;;5072453;28;20478;-45
2022/11/21 03:16:58;;;;;;;23.67;16.77;;;;;;;;;;5071949;28;20485;-45
2022/11/21 03:19:24;;;;;;;23.53;16.30;;;;;;;;;;5072254;28;20505;-45
2022/11/21 03:21:50;;;;;;;25.63;17.20;;;;;;;;;;5072019;28;20458;-45
2022/11/21 03:24:16;;;;;;;27.43;18.00;;;;;;;;;;5071136;28;20890;-45
2022/11/21 03:26:42;;;;;;;26.33;18.00;;;;;;;;;;5072163;28;20853;-45
2022/11/21 03:29:08;;;;;;;25.30;17.93;;;;;;;;;;5072345;28;20430;-45
2022/11/21 03:31:35;;;;;;;26.37;17.47;;;;;;;;;;5071756;28;20434;-45
2022/11/21 03:34:02;;;;;;;29.13;18.97;;;;;;;;;;5072020;28;20495;-44
2022/11/21 03:36:28;;;;;;;26.57;18.37;;;;;;;;;;5071327;28;20468;-44
2022/11/21 03:38:55;;;;;;;28.93;18.13;;;;;;;;;;5071600;28;21158;-44
2022/11/21 03:41:31;;;;;;;27.27;17.87;;;;;;;;;;5072193;28;20422;-45
2022/11/21 03:43:57;;;;;;;28.20;18.43;;;;;;;;;;5072071;28;20480;-45
2022/11/21 03:46:23;;;;;;;25.43;17.30;;;;;;;;;;5071525;28;20927;-45
2022/11/21 03:48:49;;;;;;;23.20;16.87;;;;;;;;;;5071819;28;20470;-45
2022/11/21 03:51:16;;;;;;;24.10;16.73;;;;;;;;;;5072135;28;20513;-49
2022/11/21 03:53:42;;;;;;;22.53;16.27;;;;;;;;;;5071779;28;20449;-45
2022/11/21 03:56:08;;;;;;;24.63;17.10;;;;;;;;;;5071962;28;20769;-45
2022/11/21 03:58:35;;;;;;;24.47;16.57;;;;;;;;;;5071601;28;20996;-45
2022/11/21 04:01:01;;;;;;;21.90;15.67;;;;;;;;;;5071715;28;20434;-45
2022/11/21 04:03:27;;;;;;;20.53;14.83;;;;;;;;;;5071659;28;20426;-44
2022/11/21 04:05:53;;;;;;;22.30;14.97;;;;;;;;;;5071648;28;20491;-44
2022/11/21 04:08:20;;;;;;;22.00;14.63;;;;;;;;;;5071660;28;21037;-44
2022/11/21 04:10:46;;;;;;;20.57;15.33;;;;;;;;;;5071579;28;20433;-45
2022/11/21 04:13:12;;;;;;;19.77;15.30;;;;;;;;;;5071432;28;20999;-45
2022/11/21 04:15:40;;;;;;;51.87;14.93;;;;;;;;;;5071445;28;20858;-45
2022/11/21 04:18:06;;;;;;;18.83;14.87;;;;;;;;;;5071403;28;20923;-45
2022/11/21 04:20:32;;;;;;;19.77;13.67;;;;;;;;;;5071167;28;20964;-45
2022/11/21 04:22:58;;;;;;;19.97;14.13;;;;;;;;;;5071130;28;20481;-45
2022/11/21 04:25:25;;;;;;;18.17;13.83;;;;;;;;;;5071425;28;20507;-45
2022/11/21 04:27:55;;;;;;;20.40;14.33;;;;;;;;;;5071410;28;20472;-45
2022/11/21 04:30:21;;;;;;;20.77;14.60;;;;;;;;;;5071431;28;20426;-45
2022/11/21 04:32:48;;;;;;;19.40;15.00;;;;;;;;;;5071342;28;20430;-45
2022/11/21 04:35:14;;;;;;;21.13;14.80;;;;;;;;;;5071120;28;20525;-45
2022/11/21 04:37:40;;;;;;;22.97;16.60;;;;;;;;;;5071244;28;20451;-45
2022/11/21 04:40:06;;;;;;;46.73;14.17;;;;;;;;;;5071224;28;20485;-45
2022/11/21 04:42:34;;;;;;;20.60;15.87;;;;;;;;;;5071339;28;20437;-45
2022/11/21 04:45:00;;;;;;;33.70;15.13;;;;;;;;;;5070858;28;20457;-45
2022/11/21 04:47:26;;;;;;;18.37;13.60;;;;;;;;;;5071156;28;20485;-45
2022/11/21 04:49:52;;;;;;;43.63;14.93;;;;;;;;;;5070858;28;21285;-45
2022/11/21 04:52:18;;;;;;;18.57;14.30;;;;;;;;;;5071241;28;20469;-45
2022/11/21 04:54:44;;;;;;;17.87;13.70;;;;;;;;;;5071041;28;20445;-45
2022/11/21 04:57:10;;;;;;;17.20;14.30;;;;;;;;;;5070936;28;20932;-45
2022/11/21 04:59:37;;;;;;;34.10;14.73;;;;;;;;;;5071005;28;20576;-45
2022/11/21 05:02:03;;;;;;;71.73;14.67;;;;;;;;;;5070846;28;20488;-45
2022/11/21 05:04:29;;;;;;;16.97;13.10;;;;;;;;;;5072243;28;20434;-45
2022/11/21 05:06:55;;;;;;;19.30;15.13;;;;;;;;;;5074859;28;20433;-45
2022/11/21 05:09:21;;;;;;;33.73;15.23;;;;;;;;;;5074819;28;20456;-45
2022/11/21 05:14:32;;;;;;;45.67;14.13;;;;;;;;;;5074736;28;20491;-45
2022/11/21 05:17:00;;;;;;;17.60;14.10;;;;;;;;;;5074658;28;20814;-44
2022/11/21 05:19:26;;;;;;;51.03;14.53;;;;;;;;;;5074665;28;20470;-45
2022/11/21 05:21:52;;;;;;;30.10;14.10;;;;;;;;;;5073905;28;20441;-45
2022/11/21 05:24:18;;;;;;;18.30;13.47;;;;;;;;;;5074363;28;20509;-45
2022/11/21 05:26:44;;;;;;;19.03;13.97;;;;;;;;;;5074150;28;20445;-44
2022/11/21 05:29:11;;;;;;;15.57;12.47;;;;;;;;;;5074404;28;20444;-44
2022/11/21 05:31:38;;;;;;;35.57;13.33;;;;;;;;;;5074345;28;20509;-44
2022/11/21 05:34:05;;;;;;;19.33;12.87;;;;;;;;;;5074247;28;20453;-45
2022/11/21 05:36:31;;;;;;;43.07;12.77;;;;;;;;;;5074210;28;20521;-44
2022/11/21 05:38:57;;;;;;;39.93;12.87;;;;;;;;;;5074023;28;20506;-44
2022/11/21 05:41:23;;;;;;;40.97;14.17;;;;;;;;;;5074273;28;20437;-44
2022/11/21 05:43:49;;;;;;;18.27;13.77;;;;;;;;;;5074141;28;20512;-44
2022/11/21 05:46:16;;;;;;;85.37;13.17;;;;;;;;;;5074253;28;20433;-44
2022/11/21 05:48:42;;;;;;;23.47;13.80;;;;;;;;;;5073664;28;20940;-45
2022/11/21 05:51:10;;;;;;;88.40;14.93;;;;;;;;;;5074010;28;20442;-45
2022/11/21 05:53:36;;;;;;;51.10;14.50;;;;;;;;;;5074059;28;20434;-45
2022/11/21 05:56:03;;;;;;;39.53;15.70;;;;;;;;;;5074046;28;20433;-45
2022/11/21 05:58:29;;;;;;;27.97;15.57;;;;;;;;;;5074027;28;20516;-44
2022/11/21 06:00:56;;;;;;;63.57;16.63;;;;;;;;;;5073916;28;20426;-45
2022/11/21 06:03:25;;;;;;;22.23;14.90;;;;;;;;;;5073810;28;20445;-43
2022/11/21 06:05:52;;;;;;;53.87;16.20;;;;;;;;;;5073341;28;20536;-43
2022/11/21 06:08:19;;;;;;;60.60;16.60;;;;;;;;;;5073663;28;20806;-44
2022/11/21 06:10:45;;;;;;;57.13;16.63;;;;;;;;;;5073788;28;20491;-44
2022/11/21 06:13:23;;;;;;;34.43;14.90;;;;;;;;;;5073766;28;20441;-45
2022/11/21 06:15:53;;;;;;;23.13;16.77;;;;;;;;;;5072102;28;20920;-45
2022/11/21 06:18:19;;;;;;;20.63;14.87;;;;;;;;;;5073134;28;20438;-43
2022/11/21 06:20:46;;;;;;;32.50;15.10;;;;;;;;;;5073528;28;20434;-45
2022/11/21 06:23:12;;;;;;;32.93;15.10;;;;;;;;;;5073318;28;20430;-45
2022/11/21 06:25:39;;;;;;;26.43;13.93;;;;;;;;;;5073226;28;20525;-45
2022/11/21 06:28:05;;;;;;;31.40;14.70;;;;;;;;;;5073558;28;20465;-44
2022/11/21 06:30:31;;;;;;;110.50;15.87;;;;;;;;;;5073427;28;20425;-45
2022/11/21 06:32:58;;;;;;;103.40;16.80;;;;;;;;;;5073140;28;20533;-44
2022/11/21 06:35:24;;;;;;;24.90;14.97;;;;;;;;;;5072977;28;20460;-44
2022/11/21 06:37:50;;;;;;;36.33;14.17;;;;;;;;;;5073267;28;20503;-45
2022/11/21 06:40:16;;;;;;;26.57;13.57;;;;;;;;;;5073084;28;20477;-45
2022/11/21 06:42:43;;;;;;;41.80;13.53;;;;;;;;;;5073046;28;20954;-44
2022/11/21 06:45:10;;;;;;;24.67;13.53;;;;;;;;;;5073026;28;20922;-45
2022/11/21 06:47:36;;;;;;;33.90;13.90;;;;;;;;;;5073052;28;20442;-45
2022/11/21 06:50:02;;;;;;;17.77;13.50;;;;;;;;;;5072895;28;20515;-45
2022/11/21 06:52:28;;;;;;;21.47;13.60;;;;;;;;;;5072932;28;20418;-44
2022/11/21 06:54:54;;;;;;;18.20;14.37;;;;;;;;;;5073073;28;20492;-44
2022/11/21 06:57:20;;;;;;;31.97;14.33;;;;;;;;;;5072872;28;21038;-44
2022/11/21 06:59:47;;;;;;;25.20;13.33;;;;;;;;;;5072448;28;20914;-44
2022/11/21 07:02:13;;;;;;;32.53;12.77;;;;;;;;;;5072859;28;20985;-44
2022/11/21 07:04:39;;;;;;;47.40;14.80;;;;;;;;;;5072586;28;20438;-45
2022/11/21 07:07:06;;;;;;;45.50;15.40;;;;;;;;;;5071884;28;20789;-44
2022/11/21 07:09:32;;;;;;;25.00;14.83;;;;;;;;;;5071285;28;20450;-45
2022/11/21 07:13:20;;;;;;;18.87;14.27;;;;;;;;;;5072650;28;20516;-44
2022/11/21 07:14:44;;;;;;;19.97;14.33;;;;;;;;;;5071713;28;20495;-43
2022/11/21 07:17:12;;;;;;;19.73;14.37;;;;;;;;;;5072372;28;20832;-44
2022/11/21 07:19:38;;;;;;;21.53;15.67;;;;;;;;;;5072305;28;20813;-44
2022/11/21 07:22:04;;;;;;;18.43;14.07;;;;;;;;;;5072259;28;20936;-44
2022/11/21 07:24:30;;;;;;;20.93;15.10;;;;;;;;;;5072316;28;20548;-42
2022/11/21 07:26:56;;;;;;;22.93;15.60;;;;;;;;;;5071634;28;20484;-43
2022/11/21 07:29:22;;;;;;;26.03;15.00;;;;;;;;;;5072319;28;20441;-45
2022/11/21 07:31:48;;;;;;;21.73;14.00;;;;;;;;;;5072017;28;20491;-43
2022/11/21 07:34:16;;;;;;;19.43;13.93;;;;;;;;;;5072074;28;20441;-43
2022/11/21 07:36:42;;;;;;;22.63;14.60;;;;;;;;;;5072184;28;21034;-43
2022/11/21 07:39:08;;;;;;;26.97;16.07;;;;;;;;;;5072152;28;20568;-43
2022/11/21 07:41:34;;;;;;;18.70;12.90;;;;;;;;;;5072127;28;20513;-43
2022/11/21 07:44:00;;;;;;;20.70;13.53;;;;;;;;;;5071872;28;20472;-45
2022/11/21 07:46:26;;;;;;;25.63;13.90;;;;;;;;;;5071833;28;20430;-42
2022/11/21 07:48:52;;;;;;;26.07;12.83;;;;;;;;;;5071854;28;20477;-43
2022/11/21 07:51:20;;;;;;;15.97;11.70;;;;;;;;;;5071950;28;20433;-44
2022/11/21 07:53:46;;;;;;;33.13;13.53;;;;;;;;;;5071820;28;20430;-42
2022/11/21 07:56:12;;;;;;;19.83;13.70;;;;;;;;;;5071686;28;20430;-42
2022/11/21 07:58:38;;;;;;;20.83;13.40;;;;;;;;;;5072135;28;20434;-42
2022/11/21 08:01:04;;;;;;;28.70;13.93;;;;;;;;;;5071735;28;20430;-43
2022/11/21 08:03:30;;;;;;;26.10;13.30;;;;;;;;;;5071865;28;21012;-42
2022/11/21 08:05:56;;;;;;;22.57;14.23;;;;;;;;;;5071635;28;20530;-42
2022/11/21 08:08:24;;;;;;;24.93;14.23;;;;;;;;;;5071530;28;20493;-42
2022/11/21 08:10:50;;;;;;;29.40;15.10;;;;;;;;;;5071722;28;20513;-42
2022/11/21 08:13:16;;;;;;;25.03;14.87;;;;;;;;;;5071926;28;20437;-42
2022/11/21 08:15:42;;;;;;;30.30;15.87;;;;;;;;;;5071261;28;20881;-42
2022/11/21 08:18:09;;;;;;;24.73;15.67;;;;;;;;;;5071488;28;20804;-42
2022/11/21 08:20:35;;;;;;;24.90;15.37;;;;;;;;;;5071527;28;20565;-42
2022/11/21 08:23:01;;;;;;;23.23;16.03;;;;;;;;;;5071221;28;20774;-43
2022/11/21 08:25:29;;;;;;;22.27;15.57;;;;;;;;;;5071549;28;20438;-43
2022/11/21 08:27:55;;;;;;;22.60;15.33;;;;;;;;;;5071184;28;20429;-44
2022/11/21 08:30:21;;;;;;;24.20;15.30;;;;;;;;;;5070724;28;20615;-43
2022/11/21 08:32:47;;;;;;;23.90;15.23;;;;;;;;;;5071319;28;20481;-43
2022/11/21 08:35:14;;;;;;;24.03;15.47;;;;;;;;;;5071335;28;20469;-43
2022/11/21 08:37:40;;;;;;;24.70;14.47;;;;;;;;;;5071658;28;20422;-44
2022/11/21 08:40:07;;;;;;;23.80;15.00;;;;;;;;;;5073596;28;20489;-43
2022/11/21 08:42:34;;;;;;;22.70;15.77;;;;;;;;;;5074265;28;20529;-43
2022/11/21 08:45:00;;;;;;;20.70;14.87;;;;;;;;;;5075384;28;20808;-43
2022/11/21 08:47:26;;;;;;;21.33;15.17;;;;;;;;;;5075248;28;21007;-43
2022/11/21 08:49:52;;;;;;;21.20;15.57;;;;;;;;;;5075136;28;20648;-43
2022/11/21 08:52:18;;;;;;;19.70;14.30;;;;;;;;;;5075319;28;20433;-43
2022/11/21 08:54:44;;;;;;;17.07;13.80;;;;;;;;;;5075411;28;20509;-43
2022/11/21 08:57:11;;;;;;;19.33;14.60;;;;;;;;;;5069688;28;20534;-43
2022/11/21 08:59:38;;;;;;;17.60;13.47;;;;;;;;;;5060031;28;20510;-44
2022/11/21 09:02:04;;;;;;;16.53;13.10;;;;;;;;;;5054578;28;20858;-43
2022/11/21 09:04:30;;;;;;;19.87;14.20;;;;;;;;;;5054939;28;20933;-43
2022/11/21 09:06:56;;;;;;;13.90;12.37;;;;;;;;;;5054809;28;21216;-42
2022/11/21 09:09:22;;;;;;;15.90;12.50;;;;;;;;;;5069247;28;20462;-43
2022/11/21 09:11:48;;;;;;;14.67;11.07;;;;;;;;;;5074581;28;20422;-43
2022/11/21 09:19:45;;;;;;;12.10;9.80;;;;;;;;;;5074896;28;20535;-43
2022/11/21 09:22:11;;;;;;;10.60;8.90;;;;;;;;;;5074815;28;20438;-44
2022/11/21 09:24:37;;;;;;;12.33;9.87;;;;;;;;;;5074477;28;20445;-43
2022/11/21 09:27:03;;;;;;;11.57;10.07;;;;;;;;;;5074637;28;20195;-43
2022/11/21 09:29:29;;;;;;;10.53;9.43;;;;;;;;;;5074728;28;20676;-44
2022/11/21 09:31:55;;;;;;;10.83;9.73;;;;;;;;;;5074381;28;20191;-44
2022/11/21 09:34:23;;;;;;;12.80;10.87;;;;;;;;;;5074452;28;20206;-45
2022/11/21 09:36:49;;;;;;;12.47;11.17;;;;;;;;;;5074075;28;20278;-44
2022/11/21 09:39:16;;;;;;;12.03;10.73;;;;;;;;;;5074334;28;20251;-43
2022/11/21 09:41:52;;;;;;;11.30;10.13;;;;;;;;;;5074210;28;20207;-44
2022/11/21 09:44:27;;;;;;;10.00;9.00;;;;;;;;;;5075467;28;20286;-45
2022/11/21 09:46:58;;;;;;;10.63;9.53;;;;;;;;;;5073915;28;20195;-43
2022/11/21 09:49:25;;;;;;;10.30;9.20;;;;;;;;;;5073474;28;20284;-44
2022/11/21 09:51:53;;;;;;;11.73;10.53;;;;;;;;;;5073800;28;20580;-43
2022/11/21 09:54:22;;;;;;;11.50;10.13;;;;;;;;;;5074170;28;20205;-44
2022/11/21 09:56:48;;;;;;;11.17;10.07;;;;;;;;;;5073708;28;20223;-43
2022/11/21 09:59:24;;;;;;;10.70;9.60;;;;;;;;;;5073589;28;20223;-44
2022/11/21 10:01:50;;;;;;;11.03;10.00;;;;;;;;;;5073812;28;20701;-44
2022/11/21 10:04:16;;;;;;;11.77;10.57;;;;;;;;;;5073862;28;20278;-43
2022/11/21 10:06:47;;;;;;;11.70;10.57;;;;;;;;;;5073843;28;20241;-44
2022/11/21 10:09:18;;;;;;;11.33;10.17;;;;;;;;;;5074386;28;20721;-44
2022/11/21 10:14:41;;;;;;;12.07;10.37;;;;;;;;;;5072903;28;20257;-43
2022/11/21 10:17:13;;;;;;;12.10;10.90;;;;;;;;;;5073496;28;20210;-43
2022/11/21 10:19:47;;;;;;;12.00;10.80;;;;;;;;;;5073638;28;20231;-44
2022/11/21 10:22:23;;;;;;;11.30;9.93;;;;;;;;;;5073506;28;20897;-43
2022/11/21 10:24:52;;;;;;;12.20;11.00;;;;;;;;;;5073121;28;20241;-45
2022/11/21 10:27:22;;;;;;;11.70;10.50;;;;;;;;;;5073455;28;20192;-43
2022/11/21 10:29:52;;;;;;;11.67;10.50;;;;;;;;;;5072213;28;20366;-43
2022/11/21 10:32:20;;;;;;;11.27;10.17;;;;;;;;;;5073103;28;20782;-43
2022/11/21 10:34:47;;;;;;;13.47;11.07;;;;;;;;;;5073286;28;20274;-43
2022/11/21 10:37:16;;;;;;;11.27;10.10;;;;;;;;;;5073204;28;20290;-43
2022/11/21 10:39:45;;;;;;;11.87;10.67;;;;;;;;;;5071138;28;20772;-42
2022/11/21 10:42:15;;;;;;;13.00;11.70;;;;;;;;;;5070746;28;20298;-43
2022/11/21 10:47:31;;;;;;;11.87;10.60;;;;;;;;;;5073399;28;20194;-43
2022/11/21 10:50:00;;;;;;;11.20;10.10;;;;;;;;;;5070844;28;20262;-43
2022/11/21 10:52:26;;;;;;;13.20;10.30;;;;;;;;;;5071260;28;20195;-43
2022/11/21 10:55:04;;;;;;;11.73;10.50;;;;;;;;;;5073104;28;20216;-43
2022/11/21 10:57:32;;;;;;;10.90;9.80;;;;;;;;;;5073242;28;20213;-43
2022/11/21 10:59:59;;;;;;;11.97;10.77;;;;;;;;;;5072798;28;20296;-43
2022/11/21 11:02:26;;;;;;;12.00;10.70;;;;;;;;;;5072345;28;20195;-43
2022/11/21 11:05:16;;;;;;;12.37;11.00;;;;;;;;;;5072674;28;20202;-43
2022/11/21 11:07:58;;;;;;;11.67;10.47;;;;;;;;;;5073000;28;20294;-50
2022/11/21 11:10:25;;;;;;;11.23;10.10;;;;;;;;;;5072856;28;20196;-43
2022/11/21 11:15:38;;;;;;;12.20;10.27;;;;;;;;;;5072727;28;20214;-43
2022/11/21 11:18:05;;;;;;;11.70;10.50;;;;;;;;;;5072514;28;20253;-42
2022/11/21 11:20:33;;;;;;;11.53;10.10;;;;;;;;;;5072563;28;20227;-43
2022/11/21 11:22:59;;;;;;;11.67;10.47;;;;;;;;;;5067541;28;20370;-43
2022/11/21 11:25:26;;;;;;;10.67;9.67;;;;;;;;;;5072168;28;20203;-42
2022/11/21 11:27:52;;;;;;;11.13;9.90;;;;;;;;;;5068836;28;20219;-43
2022/11/21 11:30:19;;;;;;;11.10;10.00;;;;;;;;;;5069353;28;20203;-43
2022/11/21 11:32:45;;;;;;;10.50;9.23;;;;;;;;;;5071871;28;20279;-42
2022/11/21 11:35:21;;;;;;;11.63;10.27;;;;;;;;;;5071604;28;20204;-43
2022/11/21 11:37:51;;;;;;;11.57;10.37;;;;;;;;;;5072246;28;20195;-43
2022/11/21 11:40:19;;;;;;;12.53;10.60;;;;;;;;;;5071979;28;20241;-43
2022/11/21 11:48:35;;;;;;;12.73;10.07;;;;;;;;;;5071706;28;20195;-43
2022/11/21 11:51:03;;;;;;;10.83;9.73;;;;;;;;;;5071520;28;20215;-42
2022/11/21 11:53:31;;;;;;;10.40;9.30;;;;;;;;;;5071191;28;20203;-42
2022/11/21 11:56:00;;;;;;;10.40;9.00;;;;;;;;;;5071647;28;20191;-43
2022/11/21 11:58:31;;;;;;;9.97;8.80;;;;;;;;;;5069789;28;20663;-43
2022/11/21 12:01:00;;;;;;;9.47;8.47;;;;;;;;;;5071313;28;20215;-43
2022/11/21 12:03:30;;;;;;;10.63;9.53;;;;;;;;;;5071432;28;20226;-43
2022/11/21 12:06:00;;;;;;;10.47;9.07;;;;;;;;;;5071639;28;20293;-43
2022/11/21 12:08:28;;;;;;;13.87;8.80;;;;;;;;;;5071586;28;20222;-43
2022/11/21 12:13:43;;;;;;;10.20;9.10;;;;;;;;;;5071673;28;20258;-43
2022/11/21 12:16:12;;;;;;;9.60;8.60;;;;;;;;;;5071419;28;20214;-43
2022/11/21 12:18:42;;;;;;;10.20;9.10;;;;;;;;;;5071589;28;20206;-43
2022/11/21 12:21:10;;;;;;;11.60;10.00;;;;;;;;;;5071430;28;20223;-43
2022/11/21 12:23:39;;;;;;;10.77;8.60;;;;;;;;;;5071194;28;20192;-44
2022/11/21 12:26:12;;;;;;;10.27;9.00;;;;;;;;;;5071459;28;20191;-43
2022/11/21 12:28:42;;;;;;;10.90;9.10;;;;;;;;;;5071758;28;20301;-43
2022/11/21 12:31:13;;;;;;;10.60;9.07;;;;;;;;;;5071673;28;20195;-43
2022/11/21 12:33:42;;;;;;;10.00;8.83;;;;;;;;;;5071405;28;20231;-43
2022/11/21 12:36:16;;;;;;;15.13;11.80;;;;;;;;;;5070694;28;20249;-43
2022/11/21 12:39:03;;;;;;;12.03;9.67;;;;;;;;;;5071239;28;20227;-43
2022/11/21 12:44:26;;;;;;;10.57;9.23;;;;;;;;;;5071350;28;20191;-42
2022/11/21 12:46:59;;;;;;;10.43;8.77;;;;;;;;;;5071175;28;20737;-43
2022/11/21 12:55:04;;;;;;;10.53;9.50;;;;;;;;;;5071256;28;20195;-44
2022/11/21 12:57:35;;;;;;;9.33;8.17;;;;;;;;;;5069659;28;20202;-43
2022/11/21 13:00:07;;;;;;;10.17;8.17;;;;;;;;;;5069124;28;20218;-43
2022/11/21 13:02:42;;;;;;;9.67;7.70;;;;;;;;;;5071215;28;20199;-43
2022/11/21 13:05:10;;;;;;;8.67;7.57;;;;;;;;;;5071300;28;20325;-43
2022/11/21 13:07:36;;;;;;;9.23;7.57;;;;;;;;;;5071074;28;20958;-43
2022/11/21 13:10:03;;;;;;;8.27;7.47;;;;;;;;;;5069983;28;20211;-44
2022/11/21 13:12:32;;;;;;;8.83;7.77;;;;;;;;;;5071076;28;20939;-43
2022/11/21 13:15:04;;;;;;;9.33;7.13;;;;;;;;;;5069131;28;20952;-44
2022/11/21 13:17:39;;;;;;;10.27;6.07;;;;;;;;;;5070875;28;20598;-43
2022/11/21 13:20:11;;;;;;;8.17;6.70;;;;;;;;;;5070771;28;21085;-43
2022/11/21 13:22:56;;;;;;;8.00;6.63;;;;;;;;;;5070855;28;20465;-43
2022/11/21 13:25:37;;;;;;;7.57;6.77;;;;;;;;;;5072398;28;20426;-44
2022/11/21 13:28:21;;;;;;;10.43;7.00;;;;;;;;;;5074613;28;20516;-44
2022/11/21 13:30:48;;;;;;;8.03;7.23;;;;;;;;;;5074351;28;20600;-44
2022/11/21 13:33:43;;;;;;;7.83;6.97;;;;;;;;;;5074800;28;20486;-43
2022/11/21 13:36:10;;;;;;;8.97;7.53;;;;;;;;;;5074363;28;20932;-43
2022/11/21 13:38:51;;;;;;;8.70;6.70;;;;;;;;;;5074376;28;20479;-42
2022/11/21 13:44:40;;;;;;;8.37;7.00;;;;;;;;;;5074057;28;20473;-43
2022/11/21 13:47:13;;;;;;;10.03;7.23;;;;;;;;;;5073389;28;20442;-43
2022/11/21 13:49:43;;;;;;;8.30;6.97;;;;;;;;;;5074186;28;20568;-43
2022/11/21 13:52:13;;;;;;;8.67;7.20;;;;;;;;;;5073956;28;20806;-43
2022/11/21 13:54:50;;;;;;;9.97;7.73;;;;;;;;;;5072527;28;20426;-43
2022/11/21 13:57:31;;;;;;;8.80;7.70;;;;;;;;;;5074932;28;20467;-44
2022/11/21 14:00:04;;;;;;;11.50;9.23;;;;;;;;;;5074905;28;20465;-43
2022/11/21 14:02:48;;;;;;;9.37;8.27;;;;;;;;;;5074759;28;20450;-43
2022/11/21 14:05:25;;;;;;;11.37;8.50;;;;;;;;;;5064380;28;20920;-43
2022/11/21 14:07:51;;;;;;;9.80;8.23;;;;;;;;;;5074333;28;20986;-44
2022/11/21 14:10:19;;;;;;;11.27;8.93;;;;;;;;;;5074418;28;20932;-43
2022/11/21 14:12:47;;;;;;;9.80;8.50;;;;;;;;;;5074772;28;20491;-43
2022/11/21 14:15:25;;;;;;;11.20;8.93;;;;;;;;;;5074546;28;20434;-43
2022/11/21 14:17:52;;;;;;;10.80;8.93;;;;;;;;;;5074305;28;20902;-43
2022/11/21 14:20:20;;;;;;;11.67;9.00;;;;;;;;;;5074274;28;21311;-44
2022/11/21 14:22:52;;;;;;;10.23;9.13;;;;;;;;;;5074175;28;20421;-44
2022/11/21 14:25:19;;;;;;;10.53;8.77;;;;;;;;;;5074227;28;20536;-44
2022/11/21 14:27:46;;;;;;;10.83;9.07;;;;;;;;;;5072854;28;20478;-44
2022/11/21 14:30:26;;;;;;;12.03;9.77;;;;;;;;;;5066889;28;20977;-45
2022/11/21 14:32:52;;;;;;;12.53;9.37;;;;;;;;;;5053660;28;20537;-44
2022/11/21 14:35:19;;;;;;;11.63;9.40;;;;;;;;;;5052218;28;20891;-44
2022/11/21 14:37:45;;;;;;;12.00;9.20;;;;;;;;;;5052699;28;20474;-43
2022/11/21 14:40:12;;;;;;;10.93;9.20;;;;;;;;;;5053320;28;20847;-43
2022/11/21 14:42:38;;;;;;;10.73;9.10;;;;;;;;;;5059988;28;21011;-43
2022/11/21 14:45:15;;;;;;;10.17;8.50;;;;;;;;;;5070272;28;20434;-43
2022/11/21 14:47:47;;;;;;;10.20;8.20;;;;;;;;;;5074159;28;20441;-45
2022/11/21 14:50:21;;;;;;;10.47;8.20;;;;;;;;;;5073233;28;20484;-43
2022/11/21 14:52:55;;;;;;;11.13;8.40;;;;;;;;;;5073238;28;20442;-44
2022/11/21 14:55:24;;;;;;;10.57;8.80;;;;;;;;;;5073805;28;20433;-44
2022/11/21 14:57:50;;;;;;;10.47;8.60;;;;;;;;;;5071133;28;20484;-46
2022/11/21 15:00:19;;;;;;;10.13;8.27;;;;;;;;;;5072855;28;20552;-44
2022/11/21 15:02:46;;;;;;;9.53;8.50;;;;;;;;;;5072214;28;20444;-44